^^
Saratoga-Weather Station Historical Data
Daily Summary for December 22, 2021 Units:  Both    English   Metric
Daily Weekly Monthly Yearly Custom
  High: Low: Average:
Temperature: 31.5 °F /  -0.3 °C 22.8 °F /  -5.1 °C 26.8 °F /  -2.9 °C
Dew Point: 27.9 °F /  -2.3 °C 21.4 °F /  -5.9 °C 24.6 °F /  -4.1 °C
Humidity: 94% 85% 91%
Wind Speed: 2.9mph /  4.7km/h - 0.6mph /  0.9km/h
Wind Gust: 8mph /  12.9km/h - -
Wind- - ESE
Pressure: 30.3 in /  1025.4 hPa 30.1 in /  1020.3 hPa -
Precipitation: 0 in /  0.0 mm    
Historical Graphs
 
 
Tabular Data for December 22, 2021
Time Temperature Dew Point Pressure Wind Wind Speed Wind Gust Humidity Rainfall Rate (Hourly) solar
08:35 23.9 °F /  -4.5 °C 22.5 °F /  -5.3 °C 30.3in /  1025.1hPa Calm     94% 0in /  0.0mm 5 W/m2
08:47 24.1 °F /  -4.4 °C 22.6 °F /  -5.2 °C 30.3in /  1025.1hPa Calm     94% 0in /  0.0mm 12 W/m2
08:52 24.3 °F /  -4.3 °C 22.8 °F /  -5.1 °C 30.3in /  1025.1hPa ESE 2mph /  3.2km/h 2mph /  3.2km/h 94% 0in /  0.0mm 16 W/m2
08:57 24.3 °F /  -4.3 °C 22.8 °F /  -5.1 °C 30.3in /  1025.4hPa Calm     94% 0in /  0.0mm 18 W/m2
09:02 24.4 °F /  -4.2 °C 23 °F /  -5 °C 30.3in /  1025.4hPa ESE 0.9mph /  1.4km/h 1mph /  1.6km/h 94% 0in /  0.0mm 19 W/m2
09:07 24.4 °F /  -4.2 °C 23 °F /  -5 °C 30.3in /  1025.4hPa ESE 0.9mph /  1.4km/h 1mph /  1.6km/h 94% 0in /  0.0mm 23 W/m2
09:12 24.6 °F /  -4.1 °C 23.2 °F /  -4.9 °C 30.3in /  1025.4hPa Calm     94% 0in /  0.0mm 28 W/m2
09:17 24.6 °F /  -4.1 °C 23.2 °F /  -4.9 °C 30.3in /  1025.4hPa ESE 0.9mph /  1.4km/h 1mph /  1.6km/h 94% 0in /  0.0mm 30 W/m2
09:22 24.8 °F /  -4 °C 23.4 °F /  -4.8 °C 30.3in /  1025.4hPa Calm     94% 0in /  0.0mm 32 W/m2
09:27 25 °F /  -3.9 °C 23.5 °F /  -4.7 °C 30.3in /  1025.4hPa Calm     94% 0in /  0.0mm 35 W/m2
09:32 25.2 °F /  -3.8 °C 23.7 °F /  -4.6 °C 30.3in /  1025.4hPa Calm   2mph /  3.2km/h 94% 0in /  0.0mm 35 W/m2
09:37 25.3 °F /  -3.7 °C 23.9 °F /  -4.5 °C 30.3in /  1025.4hPa ESE 0.9mph /  1.4km/h 2mph /  3.2km/h 94% 0in /  0.0mm 33 W/m2
09:42 25.5 °F /  -3.6 °C 24.1 °F /  -4.4 °C 30.3in /  1025.4hPa Calm   3mph /  4.8km/h 94% 0in /  0.0mm 30 W/m2
09:47 25.5 °F /  -3.6 °C 24.1 °F /  -4.4 °C 30.3in /  1025.4hPa Calm   1mph /  1.6km/h 94% 0in /  0.0mm 30 W/m2
09:52 25.7 °F /  -3.5 °C 24.3 °F /  -4.3 °C 30.3in /  1025.4hPa Calm     94% 0in /  0.0mm 33 W/m2
09:57 25.7 °F /  -3.5 °C 24.3 °F /  -4.3 °C 30.3in /  1025.4hPa Calm   1mph /  1.6km/h 94% 0in /  0.0mm 33 W/m2
10:02 25.7 °F /  -3.5 °C 24.3 °F /  -4.3 °C 30.3in /  1025.4hPa Calm   1mph /  1.6km/h 94% 0in /  0.0mm 32 W/m2
10:07 25.9 °F /  -3.4 °C 24.4 °F /  -4.2 °C 30.3in /  1025.4hPa Calm   1mph /  1.6km/h 94% 0in /  0.0mm 33 W/m2
10:12 25.9 °F /  -3.4 °C 24.4 °F /  -4.2 °C 30.3in /  1025.1hPa Calm     94% 0in /  0.0mm 37 W/m2
10:17 25.9 °F /  -3.4 °C 24.1 °F /  -4.4 °C 30.3in /  1025.1hPa East 0.9mph /  1.4km/h 1mph /  1.6km/h 93% 0in /  0.0mm 46 W/m2
10:22 26.1 °F /  -3.3 °C 24.3 °F /  -4.3 °C 30.3in /  1025.1hPa East 0.9mph /  1.4km/h 2mph /  3.2km/h 93% 0in /  0.0mm 42 W/m2
10:27 26.2 °F /  -3.2 °C 24.8 °F /  -4 °C 30.3in /  1025.1hPa East 2mph /  3.2km/h 2mph /  3.2km/h 94% 0in /  0.0mm 42 W/m2
10:32 26.2 °F /  -3.2 °C 24.4 °F /  -4.2 °C 30.3in /  1025.1hPa ESE 0.9mph /  1.4km/h 2mph /  3.2km/h 93% 0in /  0.0mm 51 W/m2
10:37 26.6 °F /  -3 °C 24.8 °F /  -4 °C 30.3in /  1025.1hPa Calm   3mph /  4.8km/h 93% 0in /  0.0mm 49 W/m2
10:42 26.8 °F /  -2.9 °C 25 °F /  -3.9 °C 30.3in /  1025.1hPa Calm     93% 0in /  0.0mm 51 W/m2
10:47 27 °F /  -2.8 °C 25.2 °F /  -3.8 °C 30.3in /  1025.1hPa Calm   3mph /  4.8km/h 93% 0in /  0.0mm 54 W/m2
10:52 27.1 °F /  -2.7 °C 25.3 °F /  -3.7 °C 30.3in /  1025.1hPa Calm     93% 0in /  0.0mm 54 W/m2
10:57 27.1 °F /  -2.7 °C 25.3 °F /  -3.7 °C 30.3in /  1025.1hPa Calm   1mph /  1.6km/h 93% 0in /  0.0mm 56 W/m2
11:02 27.3 °F /  -2.6 °C 25.5 °F /  -3.6 °C 30.3in /  1025.1hPa ENE 0.9mph /  1.4km/h 1mph /  1.6km/h 93% 0in /  0.0mm 60 W/m2
11:07 27.7 °F /  -2.4 °C 25.9 °F /  -3.4 °C 30.3in /  1025.1hPa ENE 2mph /  3.2km/h 3mph /  4.8km/h 93% 0in /  0.0mm 62 W/m2
11:12 27.9 °F /  -2.3 °C 25.9 °F /  -3.4 °C 30.3in /  1025.1hPa ENE 2mph /  3.2km/h 3mph /  4.8km/h 92% 0in /  0.0mm 60 W/m2
11:17 28 °F /  -2.2 °C 26.1 °F /  -3.3 °C 30.3in /  1025.1hPa East 0.9mph /  1.4km/h 2mph /  3.2km/h 92% 0in /  0.0mm 60 W/m2
11:22 28.2 °F /  -2.1 °C 26.2 °F /  -3.2 °C 30.3in /  1025.1hPa Calm   1mph /  1.6km/h 92% 0in /  0.0mm 62 W/m2
11:27 28.6 °F /  -1.9 °C 26.2 °F /  -3.2 °C 30.3in /  1025.1hPa Calm   4mph /  6.4km/h 91% 0in /  0.0mm 62 W/m2
11:32 28.8 °F /  -1.8 °C 26.4 °F /  -3.1 °C 30.3in /  1024.7hPa ENE 2mph /  3.2km/h 3mph /  4.8km/h 91% 0in /  0.0mm 58 W/m2
11:37 28.8 °F /  -1.8 °C 26.4 °F /  -3.1 °C 30.3in /  1024.7hPa East 2mph /  3.2km/h 2mph /  3.2km/h 91% 0in /  0.0mm 60 W/m2
11:42 28.9 °F /  -1.7 °C 26.4 °F /  -3.1 °C 30.3in /  1024.7hPa ESE 2.9mph /  4.7km/h 3mph /  4.8km/h 90% 0in /  0.0mm 65 W/m2
11:47 29.1 °F /  -1.6 °C 26.6 °F /  -3 °C 30.3in /  1024.7hPa Calm   3mph /  4.8km/h 90% 0in /  0.0mm 58 W/m2
11:52 29.1 °F /  -1.6 °C 26.6 °F /  -3 °C 30.3in /  1024.7hPa East 2mph /  3.2km/h 2mph /  3.2km/h 90% 0in /  0.0mm 56 W/m2
11:57 29.3 °F /  -1.5 °C 26.8 °F /  -2.9 °C 30.3in /  1024.4hPa Calm   4mph /  6.4km/h 90% 0in /  0.0mm 58 W/m2
12:02 29.5 °F /  -1.4 °C 27 °F /  -2.8 °C 30.3in /  1024.4hPa Calm   2mph /  3.2km/h 90% 0in /  0.0mm 51 W/m2
12:07 29.5 °F /  -1.4 °C 26.6 °F /  -3 °C 30.3in /  1024.4hPa East 2.9mph /  4.7km/h 3mph /  4.8km/h 89% 0in /  0.0mm 53 W/m2
12:13 29.7 °F /  -1.3 °C 26.8 °F /  -2.9 °C 30.3in /  1024.4hPa Calm   2mph /  3.2km/h 89% 0in /  0.0mm 56 W/m2
12:18 29.7 °F /  -1.3 °C 26.8 °F /  -2.9 °C 30.3in /  1024.4hPa Calm   3mph /  4.8km/h 89% 0in /  0.0mm 60 W/m2
12:23 29.8 °F /  -1.2 °C 27 °F /  -2.8 °C 30.2in /  1024.0hPa East 2mph /  3.2km/h 2mph /  3.2km/h 89% 0in /  0.0mm 63 W/m2
12:28 29.8 °F /  -1.2 °C 27 °F /  -2.8 °C 30.2in /  1024.0hPa East 2mph /  3.2km/h 3mph /  4.8km/h 89% 0in /  0.0mm 63 W/m2
12:33 30 °F /  -1.1 °C 27.1 °F /  -2.7 °C 30.2in /  1024.0hPa ESE 0.9mph /  1.4km/h 3mph /  4.8km/h 89% 0in /  0.0mm 62 W/m2
12:38 30.2 °F /  -1 °C 27.3 °F /  -2.6 °C 30.2in /  1024.0hPa ESE 0.9mph /  1.4km/h 4mph /  6.4km/h 89% 0in /  0.0mm 60 W/m2
12:43 30.4 °F /  -0.9 °C 27.3 °F /  -2.6 °C 30.2in /  1024.0hPa East 0.9mph /  1.4km/h 2mph /  3.2km/h 88% 0in /  0.0mm 49 W/m2
12:48 30.6 °F /  -0.8 °C 27.5 °F /  -2.5 °C 30.2in /  1023.7hPa SE 0.9mph /  1.4km/h 2mph /  3.2km/h 88% 0in /  0.0mm 49 W/m2
12:53 30.7 °F /  -0.7 °C 27.7 °F /  -2.4 °C 30.2in /  1023.7hPa ESE 0.9mph /  1.4km/h 2mph /  3.2km/h 88% 0in /  0.0mm 47 W/m2
12:58 30.9 °F /  -0.6 °C 27.9 °F /  -2.3 °C 30.2in /  1023.7hPa East 0.9mph /  1.4km/h 4mph /  6.4km/h 88% 0in /  0.0mm 44 W/m2
13:03 31.1 °F /  -0.5 °C 27.7 °F /  -2.4 °C 30.2in /  1023.7hPa East 2.9mph /  4.7km/h 4mph /  6.4km/h 87% 0in /  0.0mm 39 W/m2
13:08 31.3 °F /  -0.4 °C 27.5 °F /  -2.5 °C 30.2in /  1023.7hPa SE 0.9mph /  1.4km/h 7mph /  11.3km/h 86% 0in /  0.0mm 35 W/m2
13:13 31.3 °F /  -0.4 °C 27.5 °F /  -2.5 °C 30.2in /  1023.7hPa East 0.9mph /  1.4km/h 4mph /  6.4km/h 86% 0in /  0.0mm 37 W/m2
13:18 31.5 °F /  -0.3 °C 27.5 °F /  -2.5 °C 30.2in /  1023.7hPa Calm   7mph /  11.3km/h 85% 0in /  0.0mm 35 W/m2
13:23 31.3 °F /  -0.4 °C 27.3 °F /  -2.6 °C 30.2in /  1023.7hPa ESE 2mph /  3.2km/h 3mph /  4.8km/h 85% 0in /  0.0mm 35 W/m2
13:28 31.3 °F /  -0.4 °C 27.5 °F /  -2.5 °C 30.2in /  1023.4hPa Calm   4mph /  6.4km/h 86% 0in /  0.0mm 35 W/m2
13:33 31.3 °F /  -0.4 °C 27.5 °F /  -2.5 °C 30.2in /  1023.4hPa Calm   1mph /  1.6km/h 86% 0in /  0.0mm 37 W/m2
13:38 30.9 °F /  -0.6 °C 27.1 °F /  -2.7 °C 30.2in /  1023.4hPa ESE 0.9mph /  1.4km/h 4mph /  6.4km/h 86% 0in /  0.0mm 37 W/m2
13:43 30.9 °F /  -0.6 °C 27.1 °F /  -2.7 °C 30.2in /  1023.4hPa South 0.9mph /  1.4km/h 4mph /  6.4km/h 86% 0in /  0.0mm 37 W/m2
13:48 30.7 °F /  -0.7 °C 27.3 °F /  -2.6 °C 30.2in /  1023.4hPa SE 0.9mph /  1.4km/h 2mph /  3.2km/h 87% 0in /  0.0mm 42 W/m2
13:53 30.7 °F /  -0.7 °C 27.3 °F /  -2.6 °C 30.2in /  1023.4hPa ESE 0.9mph /  1.4km/h 7mph /  11.3km/h 87% 0in /  0.0mm 44 W/m2
13:58 30.6 °F /  -0.8 °C 27.1 °F /  -2.7 °C 30.2in /  1023.4hPa ESE 0.9mph /  1.4km/h 3mph /  4.8km/h 87% 0in /  0.0mm 46 W/m2
14:08 30.6 °F /  -0.8 °C 27.1 °F /  -2.7 °C 30.2in /  1023.4hPa Calm   2mph /  3.2km/h 87% 0in /  0.0mm 42 W/m2
14:13 30.6 °F /  -0.8 °C 27.1 °F /  -2.7 °C 30.2in /  1023.0hPa Calm   2mph /  3.2km/h 87% 0in /  0.0mm 39 W/m2
14:18 30.6 °F /  -0.8 °C 27.1 °F /  -2.7 °C 30.2in /  1023.0hPa ESE 2.9mph /  4.7km/h 3mph /  4.8km/h 87% 0in /  0.0mm 37 W/m2
14:23 30.4 °F /  -0.9 °C 27 °F /  -2.8 °C 30.2in /  1023.0hPa Calm   1mph /  1.6km/h 87% 0in /  0.0mm 37 W/m2
14:28 30.6 °F /  -0.8 °C 27.1 °F /  -2.7 °C 30.2in /  1023.0hPa SE 2.9mph /  4.7km/h 4mph /  6.4km/h 87% 0in /  0.0mm 35 W/m2
14:33 30.4 °F /  -0.9 °C 27 °F /  -2.8 °C 30.2in /  1023.0hPa ESE 0.9mph /  1.4km/h 3mph /  4.8km/h 87% 0in /  0.0mm 30 W/m2
14:38 30.4 °F /  -0.9 °C 27 °F /  -2.8 °C 30.2in /  1022.7hPa ESE 0.9mph /  1.4km/h 3mph /  4.8km/h 87% 0in /  0.0mm 28 W/m2
14:43 30.2 °F /  -1 °C 26.8 °F /  -2.9 °C 30.2in /  1023.0hPa Calm   2mph /  3.2km/h 87% 0in /  0.0mm 25 W/m2
14:48 30 °F /  -1.1 °C 26.6 °F /  -3 °C 30.2in /  1023.0hPa East 0.9mph /  1.4km/h 1mph /  1.6km/h 87% 0in /  0.0mm 23 W/m2
14:53 29.8 °F /  -1.2 °C 26.8 °F /  -2.9 °C 30.2in /  1023.0hPa Calm   1mph /  1.6km/h 88% 0in /  0.0mm 26 W/m2
14:58 29.8 °F /  -1.2 °C 26.8 °F /  -2.9 °C 30.2in /  1023.0hPa ESE 2.9mph /  4.7km/h 3mph /  4.8km/h 88% 0in /  0.0mm 28 W/m2
15:03 29.7 °F /  -1.3 °C 26.6 °F /  -3 °C 30.2in /  1022.7hPa Calm   6mph /  9.7km/h 88% 0in /  0.0mm 26 W/m2
15:08 29.7 °F /  -1.3 °C 26.6 °F /  -3 °C 30.2in /  1023.0hPa SSE 0.9mph /  1.4km/h 1mph /  1.6km/h 88% 0in /  0.0mm 26 W/m2
15:13 29.5 °F /  -1.4 °C 26.4 °F /  -3.1 °C 30.2in /  1023.0hPa East 2mph /  3.2km/h 4mph /  6.4km/h 88% 0in /  0.0mm 26 W/m2
15:18 29.5 °F /  -1.4 °C 26.4 °F /  -3.1 °C 30.2in /  1022.7hPa ESE 0.9mph /  1.4km/h 3mph /  4.8km/h 88% 0in /  0.0mm 25 W/m2
15:23 29.5 °F /  -1.4 °C 26.4 °F /  -3.1 °C 30.2in /  1022.7hPa ESE 0.9mph /  1.4km/h 1mph /  1.6km/h 88% 0in /  0.0mm 25 W/m2
15:28 29.5 °F /  -1.4 °C 26.4 °F /  -3.1 °C 30.2in /  1022.7hPa ESE 2mph /  3.2km/h 3mph /  4.8km/h 88% 0in /  0.0mm 26 W/m2
15:33 29.3 °F /  -1.5 °C 26.4 °F /  -3.1 °C 30.2in /  1022.7hPa East 0.9mph /  1.4km/h 2mph /  3.2km/h 89% 0in /  0.0mm 25 W/m2
15:38 29.3 °F /  -1.5 °C 26.2 °F /  -3.2 °C 30.2in /  1022.7hPa ESE 0.9mph /  1.4km/h 4mph /  6.4km/h 88% 0in /  0.0mm 23 W/m2
15:43 29.1 °F /  -1.6 °C 26.1 °F /  -3.3 °C 30.2in /  1022.7hPa Calm   2mph /  3.2km/h 88% 0in /  0.0mm 23 W/m2
15:48 29.1 °F /  -1.6 °C 26.2 °F /  -3.2 °C 30.2in /  1022.7hPa SE 2mph /  3.2km/h 4mph /  6.4km/h 89% 0in /  0.0mm 21 W/m2
15:53 29.1 °F /  -1.6 °C 26.2 °F /  -3.2 °C 30.2in /  1022.7hPa Calm   2mph /  3.2km/h 89% 0in /  0.0mm 19 W/m2
15:58 28.9 °F /  -1.7 °C 26.1 °F /  -3.3 °C 30.2in /  1022.7hPa ESE 0.9mph /  1.4km/h 2mph /  3.2km/h 89% 0in /  0.0mm 18 W/m2
16:03 28.9 °F /  -1.7 °C 26.1 °F /  -3.3 °C 30.2in /  1022.7hPa Calm   2mph /  3.2km/h 89% 0in /  0.0mm 16 W/m2
16:08 28.8 °F /  -1.8 °C 25.9 °F /  -3.4 °C 30.2in /  1022.7hPa Calm   2mph /  3.2km/h 89% 0in /  0.0mm 14 W/m2
16:13 28.6 °F /  -1.9 °C 25.7 °F /  -3.5 °C 30.2in /  1022.7hPa Calm     89% 0in /  0.0mm 11 W/m2
16:18 28.4 °F /  -2 °C 25.5 °F /  -3.6 °C 30.2in /  1022.7hPa Calm   2mph /  3.2km/h 89% 0in /  0.0mm 9 W/m2
16:23 28.2 °F /  -2.1 °C 25.3 °F /  -3.7 °C 30.2in /  1022.7hPa Calm   1mph /  1.6km/h 89% 0in /  0.0mm 7 W/m2
16:28 28 °F /  -2.2 °C 25.2 °F /  -3.8 °C 30.2in /  1022.4hPa Calm   1mph /  1.6km/h 89% 0in /  0.0mm 5 W/m2
16:33 27.9 °F /  -2.3 °C 25 °F /  -3.9 °C 30.2in /  1022.7hPa Calm   1mph /  1.6km/h 89% 0in /  0.0mm 0 W/m2
16:38 27.7 °F /  -2.4 °C 24.8 °F /  -4 °C 30.2in /  1022.4hPa Calm     89% 0in /  0.0mm 0 W/m2
16:43 27.5 °F /  -2.5 °C 25 °F /  -3.9 °C 30.2in /  1022.4hPa Calm   2mph /  3.2km/h 90% 0in /  0.0mm 0 W/m2
16:48 27.3 °F /  -2.6 °C 24.8 °F /  -4 °C 30.2in /  1022.4hPa Calm   1mph /  1.6km/h 90% 0in /  0.0mm 0 W/m2
16:53 27.1 °F /  -2.7 °C 24.6 °F /  -4.1 °C 30.2in /  1022.4hPa ESE 0.9mph /  1.4km/h 2mph /  3.2km/h 90% 0in /  0.0mm 0 W/m2
16:58 27 °F /  -2.8 °C 24.4 °F /  -4.2 °C 30.2in /  1022.4hPa SSE 0.9mph /  1.4km/h 1mph /  1.6km/h 90% 0in /  0.0mm 0 W/m2
17:03 27 °F /  -2.8 °C 24.6 °F /  -4.1 °C 30.2in /  1022.4hPa Calm   2mph /  3.2km/h 91% 0in /  0.0mm 0 W/m2
17:08 27 °F /  -2.8 °C 24.6 °F /  -4.1 °C 30.2in /  1022.4hPa ENE 0.9mph /  1.4km/h 8mph /  12.9km/h 91% 0in /  0.0mm 0 W/m2
17:13 27.1 °F /  -2.7 °C 24.8 °F /  -4 °C 30.2in /  1022.4hPa ESE 0.9mph /  1.4km/h 3mph /  4.8km/h 91% 0in /  0.0mm 0 W/m2
17:18 27.1 °F /  -2.7 °C 24.8 °F /  -4 °C 30.2in /  1022.4hPa ESE 0.9mph /  1.4km/h 8mph /  12.9km/h 91% 0in /  0.0mm 0 W/m2
17:23 27.1 °F /  -2.7 °C 24.8 °F /  -4 °C 30.2in /  1022.4hPa Calm   2mph /  3.2km/h 91% 0in /  0.0mm 0 W/m2
17:28 27.1 °F /  -2.7 °C 24.8 °F /  -4 °C 30.2in /  1022.4hPa East 2mph /  3.2km/h 6mph /  9.7km/h 91% 0in /  0.0mm 0 W/m2
17:33 27.1 °F /  -2.7 °C 24.8 °F /  -4 °C 30.2in /  1022.4hPa ESE 2mph /  3.2km/h 4mph /  6.4km/h 91% 0in /  0.0mm 0 W/m2
17:38 27.1 °F /  -2.7 °C 24.8 °F /  -4 °C 30.2in /  1022.4hPa Calm   1mph /  1.6km/h 91% 0in /  0.0mm 0 W/m2
17:43 27.1 °F /  -2.7 °C 24.8 °F /  -4 °C 30.2in /  1022.4hPa Calm   4mph /  6.4km/h 91% 0in /  0.0mm 0 W/m2
17:48 27 °F /  -2.8 °C 24.6 °F /  -4.1 °C 30.2in /  1022.4hPa Calm   1mph /  1.6km/h 91% 0in /  0.0mm 0 W/m2
17:53 26.8 °F /  -2.9 °C 24.4 °F /  -4.2 °C 30.2in /  1022.4hPa SE 0.9mph /  1.4km/h 1mph /  1.6km/h 91% 0in /  0.0mm 0 W/m2
17:58 26.6 °F /  -3 °C 24.3 °F /  -4.3 °C 30.2in /  1022.4hPa Calm   1mph /  1.6km/h 91% 0in /  0.0mm 0 W/m2
18:03 26.4 °F /  -3.1 °C 24.1 °F /  -4.4 °C 30.2in /  1022.4hPa Calm   2mph /  3.2km/h 91% 0in /  0.0mm 0 W/m2
18:08 26.2 °F /  -3.2 °C 23.9 °F /  -4.5 °C 30.2in /  1022.4hPa Calm     91% 0in /  0.0mm 0 W/m2
18:13 26.1 °F /  -3.3 °C 23.7 °F /  -4.6 °C 30.2in /  1022.4hPa Calm   2mph /  3.2km/h 91% 0in /  0.0mm 0 W/m2
18:18 26.1 °F /  -3.3 °C 23.7 °F /  -4.6 °C 30.2in /  1022.4hPa Calm     91% 0in /  0.0mm 0 W/m2
18:23 25.9 °F /  -3.4 °C 23.5 °F /  -4.7 °C 30.2in /  1022.0hPa Calm   1mph /  1.6km/h 91% 0in /  0.0mm 0 W/m2
18:28 25.5 °F /  -3.6 °C 23.2 °F /  -4.9 °C 30.2in /  1022.4hPa Calm     91% 0in /  0.0mm 0 W/m2
18:33 25.5 °F /  -3.6 °C 23.5 °F /  -4.7 °C 30.2in /  1022.4hPa Calm   2mph /  3.2km/h 92% 0in /  0.0mm 0 W/m2
18:38 25.5 °F /  -3.6 °C 23.5 °F /  -4.7 °C 30.2in /  1022.0hPa Calm     92% 0in /  0.0mm 0 W/m2
18:43 25.3 °F /  -3.7 °C 23.4 °F /  -4.8 °C 30.2in /  1022.0hPa Calm   2mph /  3.2km/h 92% 0in /  0.0mm 0 W/m2
18:48 25.3 °F /  -3.7 °C 23.4 °F /  -4.8 °C 30.2in /  1022.0hPa Calm     92% 0in /  0.0mm 0 W/m2
18:53 25.2 °F /  -3.8 °C 23.2 °F /  -4.9 °C 30.2in /  1022.0hPa Calm   1mph /  1.6km/h 92% 0in /  0.0mm 0 W/m2
18:58 25.2 °F /  -3.8 °C 23.2 °F /  -4.9 °C 30.2in /  1022.0hPa Calm   1mph /  1.6km/h 92% 0in /  0.0mm 0 W/m2
19:03 25 °F /  -3.9 °C 23 °F /  -5 °C 30.2in /  1022.0hPa Calm   4mph /  6.4km/h 92% 0in /  0.0mm 0 W/m2
19:08 25 °F /  -3.9 °C 23.2 °F /  -4.9 °C 30.2in /  1021.7hPa Calm   1mph /  1.6km/h 93% 0in /  0.0mm 0 W/m2
19:13 25 °F /  -3.9 °C 23.2 °F /  -4.9 °C 30.2in /  1021.7hPa ESE 2mph /  3.2km/h 3mph /  4.8km/h 93% 0in /  0.0mm 0 W/m2
19:18 25.2 °F /  -3.8 °C 23.4 °F /  -4.8 °C 30.2in /  1021.7hPa ESE 2mph /  3.2km/h 3mph /  4.8km/h 93% 0in /  0.0mm 0 W/m2
19:23 25.3 °F /  -3.7 °C 23.5 °F /  -4.7 °C 30.2in /  1021.7hPa SSE 0.9mph /  1.4km/h 1mph /  1.6km/h 93% 0in /  0.0mm 0 W/m2
19:28 25.3 °F /  -3.7 °C 23.5 °F /  -4.7 °C 30.2in /  1021.7hPa Calm   3mph /  4.8km/h 93% 0in /  0.0mm 0 W/m2
19:33 25.3 °F /  -3.7 °C 23.5 °F /  -4.7 °C 30.2in /  1021.7hPa ESE 0.9mph /  1.4km/h 4mph /  6.4km/h 93% 0in /  0.0mm 0 W/m2
19:38 25.2 °F /  -3.8 °C 23.4 °F /  -4.8 °C 30.2in /  1021.7hPa Calm   3mph /  4.8km/h 93% 0in /  0.0mm 0 W/m2
19:43 25.2 °F /  -3.8 °C 23.4 °F /  -4.8 °C 30.2in /  1021.7hPa Calm   4mph /  6.4km/h 93% 0in /  0.0mm 0 W/m2
19:48 25.2 °F /  -3.8 °C 23.4 °F /  -4.8 °C 30.2in /  1021.7hPa Calm   6mph /  9.7km/h 93% 0in /  0.0mm 0 W/m2
19:53 25.2 °F /  -3.8 °C 23.4 °F /  -4.8 °C 30.2in /  1021.3hPa SE 0.9mph /  1.4km/h 3mph /  4.8km/h 93% 0in /  0.0mm 0 W/m2
19:58 25.2 °F /  -3.8 °C 23.4 °F /  -4.8 °C 30.2in /  1021.7hPa SSE 0.9mph /  1.4km/h 6mph /  9.7km/h 93% 0in /  0.0mm 0 W/m2
20:03 25.2 °F /  -3.8 °C 23.4 °F /  -4.8 °C 30.2in /  1021.7hPa Calm   2mph /  3.2km/h 93% 0in /  0.0mm 0 W/m2
20:08 25.3 °F /  -3.7 °C 23.5 °F /  -4.7 °C 30.2in /  1021.7hPa ESE 0.9mph /  1.4km/h 1mph /  1.6km/h 93% 0in /  0.0mm 0 W/m2
20:13 25.3 °F /  -3.7 °C 23.5 °F /  -4.7 °C 30.2in /  1021.7hPa SSE 2.9mph /  4.7km/h 4mph /  6.4km/h 93% 0in /  0.0mm 0 W/m2
20:18 25.3 °F /  -3.7 °C 23.9 °F /  -4.5 °C 30.2in /  1021.7hPa ESE 2.9mph /  4.7km/h 3mph /  4.8km/h 94% 0in /  0.0mm 0 W/m2
20:23 25.5 °F /  -3.6 °C 24.1 °F /  -4.4 °C 30.2in /  1021.7hPa SE 2.9mph /  4.7km/h 5mph /  8km/h 94% 0in /  0.0mm 0 W/m2
20:28 25.9 °F /  -3.4 °C 24.4 °F /  -4.2 °C 30.2in /  1021.7hPa ESE 2.9mph /  4.7km/h 3mph /  4.8km/h 94% 0in /  0.0mm 0 W/m2
20:33 25.9 °F /  -3.4 °C 24.4 °F /  -4.2 °C 30.2in /  1021.7hPa Calm   5mph /  8km/h 94% 0in /  0.0mm 0 W/m2
20:38 25.9 °F /  -3.4 °C 24.4 °F /  -4.2 °C 30.2in /  1021.3hPa Calm   2mph /  3.2km/h 94% 0in /  0.0mm 0 W/m2
20:43 25.9 °F /  -3.4 °C 24.4 °F /  -4.2 °C 30.2in /  1021.3hPa Calm     94% 0in /  0.0mm 0 W/m2
20:48 25.9 °F /  -3.4 °C 24.4 °F /  -4.2 °C 30.2in /  1021.3hPa Calm     94% 0in /  0.0mm 0 W/m2
20:53 25.9 °F /  -3.4 °C 24.4 °F /  -4.2 °C 30.2in /  1021.3hPa East 0.9mph /  1.4km/h 1mph /  1.6km/h 94% 0in /  0.0mm 0 W/m2
20:58 25.9 °F /  -3.4 °C 24.4 °F /  -4.2 °C 30.2in /  1021.3hPa Calm   2mph /  3.2km/h 94% 0in /  0.0mm 0 W/m2
21:03 25.9 °F /  -3.4 °C 24.4 °F /  -4.2 °C 30.2in /  1021.3hPa Calm     94% 0in /  0.0mm 0 W/m2
21:08 25.7 °F /  -3.5 °C 24.3 °F /  -4.3 °C 30.2in /  1021.3hPa Calm     94% 0in /  0.0mm 0 W/m2
21:14 25.5 °F /  -3.6 °C 24.1 °F /  -4.4 °C 30.2in /  1021.3hPa Calm     94% 0in /  0.0mm 0 W/m2
21:19 25.5 °F /  -3.6 °C 24.1 °F /  -4.4 °C 30.2in /  1021.3hPa Calm     94% 0in /  0.0mm 0 W/m2
21:24 25.3 °F /  -3.7 °C 23.5 °F /  -4.7 °C 30.2in /  1021.0hPa Calm     93% 0in /  0.0mm 0 W/m2
21:29 25.2 °F /  -3.8 °C 23.4 °F /  -4.8 °C 30.2in /  1021.0hPa Calm     93% 0in /  0.0mm 0 W/m2
21:34 25 °F /  -3.9 °C 23.2 °F /  -4.9 °C 30.2in /  1021.3hPa Calm     93% 0in /  0.0mm 0 W/m2
21:39 25 °F /  -3.9 °C 23.2 °F /  -4.9 °C 30.2in /  1021.3hPa Calm     93% 0in /  0.0mm 0 W/m2
21:44 24.6 °F /  -4.1 °C 22.8 °F /  -5.1 °C 30.2in /  1021.0hPa Calm     93% 0in /  0.0mm 0 W/m2
21:49 24.4 °F /  -4.2 °C 22.6 °F /  -5.2 °C 30.2in /  1021.0hPa Calm     93% 0in /  0.0mm 0 W/m2
21:54 24.4 °F /  -4.2 °C 22.6 °F /  -5.2 °C 30.2in /  1021.0hPa Calm     93% 0in /  0.0mm 0 W/m2
21:59 24.3 °F /  -4.3 °C 22.5 °F /  -5.3 °C 30.2in /  1021.0hPa Calm     93% 0in /  0.0mm 0 W/m2
22:04 24.3 °F /  -4.3 °C 22.5 °F /  -5.3 °C 30.2in /  1021.0hPa Calm     93% 0in /  0.0mm 0 W/m2
22:09 24.1 °F /  -4.4 °C 22.3 °F /  -5.4 °C 30.2in /  1021.0hPa Calm     93% 0in /  0.0mm 0 W/m2
22:14 24.1 °F /  -4.4 °C 22.6 °F /  -5.2 °C 30.2in /  1021.0hPa Calm     94% 0in /  0.0mm 0 W/m2
22:19 23.9 °F /  -4.5 °C 22.5 °F /  -5.3 °C 30.2in /  1021.0hPa Calm     94% 0in /  0.0mm 0 W/m2
22:24 23.7 °F /  -4.6 °C 22.3 °F /  -5.4 °C 30.1in /  1020.7hPa Calm     94% 0in /  0.0mm 0 W/m2
22:29 23.7 °F /  -4.6 °C 22.3 °F /  -5.4 °C 30.1in /  1020.7hPa Calm     94% 0in /  0.0mm 0 W/m2
22:34 23.5 °F /  -4.7 °C 21.7 °F /  -5.7 °C 30.1in /  1020.7hPa Calm     93% 0in /  0.0mm 0 W/m2
22:39 23.5 °F /  -4.7 °C 21.7 °F /  -5.7 °C 30.1in /  1020.7hPa Calm     93% 0in /  0.0mm 0 W/m2
22:44 23.5 °F /  -4.7 °C 22.1 °F /  -5.5 °C 30.1in /  1020.3hPa Calm     94% 0in /  0.0mm 0 W/m2
22:49 23.4 °F /  -4.8 °C 21.9 °F /  -5.6 °C 30.1in /  1020.3hPa Calm     94% 0in /  0.0mm 0 W/m2
22:54 23.4 °F /  -4.8 °C 21.9 °F /  -5.6 °C 30.1in /  1020.3hPa Calm     94% 0in /  0.0mm 0 W/m2
22:59 23.4 °F /  -4.8 °C 21.9 °F /  -5.6 °C 30.1in /  1020.7hPa Calm     94% 0in /  0.0mm 0 W/m2
23:04 23.4 °F /  -4.8 °C 21.9 °F /  -5.6 °C 30.1in /  1020.7hPa Calm     94% 0in /  0.0mm 0 W/m2
23:09 23.2 °F /  -4.9 °C 21.7 °F /  -5.7 °C 30.1in /  1020.7hPa Calm     94% 0in /  0.0mm 0 W/m2
23:14 23.2 °F /  -4.9 °C 21.7 °F /  -5.7 °C 30.1in /  1020.3hPa Calm     94% 0in /  0.0mm 0 W/m2
23:19 23.2 °F /  -4.9 °C 21.7 °F /  -5.7 °C 30.1in /  1020.7hPa Calm     94% 0in /  0.0mm 0 W/m2
23:24 23 °F /  -5 °C 21.6 °F /  -5.8 °C 30.1in /  1020.7hPa Calm     94% 0in /  0.0mm 0 W/m2
23:29 23 °F /  -5 °C 21.6 °F /  -5.8 °C 30.1in /  1020.3hPa Calm     94% 0in /  0.0mm 0 W/m2
23:34 23 °F /  -5 °C 21.6 °F /  -5.8 °C 30.1in /  1020.3hPa Calm     94% 0in /  0.0mm 0 W/m2
23:39 22.8 °F /  -5.1 °C 21.4 °F /  -5.9 °C 30.1in /  1020.3hPa Calm     94% 0in /  0.0mm 0 W/m2
23:44 22.8 °F /  -5.1 °C 21.4 °F /  -5.9 °C 30.1in /  1020.3hPa Calm     94% 0in /  0.0mm 0 W/m2
23:49 22.8 °F /  -5.1 °C 21.4 °F /  -5.9 °C 30.1in /  1020.3hPa Calm     94% 0in /  0.0mm 0 W/m2
23:54 22.8 °F /  -5.1 °C 21.4 °F /  -5.9 °C 30.1in /  1020.3hPa Calm     94% 0in /  0.0mm 0 W/m2
23:59 23 °F /  -5 °C 21.6 °F /  -5.8 °C 30.1in /  1020.3hPa Calm     94% 0in /  0.0mm 0 W/m2
Juneau County Weather
Compliments of Weather Underground - 4 mb